Danville, Indiana
Current Conditions -  °F | °C
As of 7:53 PM on Tuesday 21 Oct 2014 (Local Time) from KEYE Reporting Station
Clear Clear  
Wind Chill: 50°   Ceiling: Unl
Heat Index: 50°   Visibility: 10mi
Dew Point: 43°   Wind: 5mph
Humidity: 77%   Direction: 330°NNW
Pressure: 30.14"   Gusts: NA
Location:  39.76°N, 86.53°W
Report Text: KEYE 212353Z AUTO 33004KT 10SM CLR 10/06 A3014 RMK AO2 SLP210 T01000061 10139 20100 53014
Loading
Personal Weather Stations






























Interactive Weather Map
Tropical Storm Tracking
New forecast layout! Learn more

10-Day Weather Forecast

Advertisements
Track Severe Weather on mobile